Time;durP1;ratioP1;P1;durP2;ratioP2;P2;SDS_P1;SDS_P2;PMS_P1;PMS_P2;Temp;Humidity;BMP_temperature;BMP_pressure;BME280_temperature;BME280_humidity;BME280_pressure;Samples;Min_cycle;Max_cycle;Signal;HPM_P1;HPM_P2
2023/09/03 00:01:21;;;;;;;54.40;34.30;;;19.80;99.90;;;;;;7303973;19;20183;-78
2023/09/03 00:03:47;;;;;;;50.13;32.77;;;19.80;99.90;;;;;;7285293;19;20191;-79
2023/09/03 00:06:13;;;;;;;57.10;36.00;;;19.80;99.90;;;;;;7283110;19;20187;-80
2023/09/03 00:08:38;;;;;;;53.13;34.43;;;19.80;99.90;;;;;;7282661;19;20202;-78
2023/09/03 00:11:04;;;;;;;50.10;34.03;;;19.80;99.90;;;;;;7283676;19;20219;-80
2023/09/03 00:13:30;;;;;;;50.10;31.73;;;19.80;99.90;;;;;;7283086;19;20547;-80
2023/09/03 00:15:56;;;;;;;48.83;33.43;;;19.80;99.90;;;;;;7283853;19;20612;-80
2023/09/03 00:18:21;;;;;;;53.07;34.80;;;19.80;99.90;;;;;;7311918;19;20254;-80
2023/09/03 00:20:58;;;;;;;53.37;34.47;;;19.70;99.90;;;;;;7290238;19;20273;-79
2023/09/03 00:23:24;;;;;;;59.27;38.50;;;19.60;99.90;;;;;;7268050;19;20181;-79
2023/09/03 00:25:50;;;;;;;63.73;40.23;;;19.50;99.90;;;;;;7310533;19;20191;-80
2023/09/03 00:28:15;;;;;;;61.33;38.93;;;19.40;99.90;;;;;;7290680;19;20182;-79
2023/09/03 00:30:42;;;;;;;58.30;36.97;;;19.50;99.90;;;;;;7289444;19;21012;-79
2023/09/03 00:33:07;;;;;;;60.27;38.50;;;19.50;99.90;;;;;;7287796;19;20844;-81
2023/09/03 00:35:33;;;;;;;66.03;38.60;;;19.50;99.90;;;;;;7288712;19;20199;-79
2023/09/03 00:37:59;;;;;;;65.77;39.17;;;19.40;99.90;;;;;;7285522;19;20608;-80
2023/09/03 00:40:25;;;;;;;54.47;34.13;;;19.50;99.90;;;;;;7289882;19;20253;-80
2023/09/03 00:42:51;;;;;;;55.13;34.03;;;19.60;99.90;;;;;;7312590;19;20184;-80
2023/09/03 00:45:17;;;;;;;51.90;32.50;;;19.60;99.90;;;;;;7289021;19;20242;-79
2023/09/03 00:47:43;;;;;;;53.40;33.03;;;19.60;99.90;;;;;;7288522;19;20333;-79
2023/09/03 00:50:11;;;;;;;47.20;30.77;;;19.50;99.90;;;;;;7289676;19;20612;-79
2023/09/03 00:52:37;;;;;;;43.87;29.70;;;19.50;99.90;;;;;;7290188;19;20189;-79
2023/09/03 00:55:03;;;;;;;49.67;32.03;;;19.50;99.90;;;;;;7289321;19;20220;-79
2023/09/03 00:57:29;;;;;;;56.97;35.67;;;19.40;99.90;;;;;;7287373;19;20640;-79
2023/09/03 00:59:59;;;;;;;60.60;36.90;;;19.40;99.90;;;;;;7286238;19;20292;-80
2023/09/03 01:02:25;;;;;;;62.30;37.43;;;19.30;99.90;;;;;;7290438;19;20201;-80
2023/09/03 01:04:51;;;;;;;57.97;36.20;;;19.40;99.90;;;;;;7310237;19;20189;-80
2023/09/03 01:07:17;;;;;;;62.37;37.60;;;19.40;99.90;;;;;;7288449;19;20813;-79
2023/09/03 01:09:43;;;;;;;67.93;40.23;;;19.30;99.90;;;;;;7287306;19;20174;-79
2023/09/03 01:12:20;;;;;;;70.83;41.73;;;19.20;99.90;;;;;;7288023;19;20196;-80
2023/09/03 01:14:53;;;;;;;73.33;41.07;;;19.00;99.90;;;;;;7287606;19;20200;-80
2023/09/03 01:17:33;;;;;;;86.97;46.70;;;19.00;99.90;;;;;;7289197;19;20199;-80
2023/09/03 01:20:09;;;;;;;80.00;44.40;;;19.10;99.90;;;;;;7186822;19;2006482;-80
2023/09/03 01:22:57;;;;;;;93.63;47.20;;;19.10;99.90;;;;;;7289654;19;20199;-80
2023/09/03 01:25:53;;;;;;;104.30;52.07;;;19.10;99.90;;;;;;7277084;19;20222;-79
2023/09/03 01:28:29;;;;;;;105.33;52.30;;;19.10;99.90;;;;;;7286359;19;20230;-78
2023/09/03 01:30:58;;;;;;;107.73;52.87;;;19.20;99.90;;;;;;7260691;19;20185;-80
2023/09/03 01:33:28;;;;;;;103.27;52.07;;;19.20;99.90;;;;;;7290438;19;20653;-79
2023/09/03 01:35:59;;;;;;;110.77;54.07;;;19.10;99.90;;;;;;7293377;19;20221;-79
2023/09/03 01:38:26;;;;;;;114.37;53.73;;;19.10;99.90;;;;;;7287880;19;20193;-80
2023/09/03 01:40:55;;;;;;;108.80;53.47;;;19.20;99.90;;;;;;7310881;19;20718;-80
2023/09/03 01:43:22;;;;;;;111.40;54.93;;;19.00;99.90;;;;;;7287575;19;20291;-80
2023/09/03 01:46:12;;;;;;;113.97;55.90;;;19.00;99.90;;;;;;7289063;19;20579;-80
2023/09/03 01:48:56;;;;;;;112.07;54.03;;;18.90;99.90;;;;;;7186161;19;2006141;-80
2023/09/03 01:51:34;;;;;;;102.60;52.03;;;19.00;99.90;;;;;;7288451;19;20193;-80
2023/09/03 01:54:24;;;;;;;102.77;52.07;;;18.90;99.90;;;;;;7186177;19;2004570;-80
2023/09/03 01:57:06;;;;;;;109.97;53.00;;;19.00;99.90;;;;;;7286811;19;20796;-80
2023/09/03 01:59:43;;;;;;;103.40;51.70;;;18.90;99.90;;;;;;7184174;19;2004431;-79
2023/09/03 02:02:10;;;;;;;101.30;51.93;;;19.00;99.90;;;;;;7287274;19;20526;-81
2023/09/03 02:04:36;;;;;;;103.43;51.73;;;19.00;99.90;;;;;;7285808;19;20193;-79
2023/09/03 02:07:02;;;;;;;100.37;50.70;;;19.00;99.90;;;;;;7286735;19;20206;-80
2023/09/03 02:09:28;;;;;;;98.63;50.73;;;19.00;99.90;;;;;;7287533;19;20181;-80
2023/09/03 02:11:55;;;;;;;94.17;48.50;;;19.00;99.90;;;;;;7291371;19;20209;-79
2023/09/03 02:14:20;;;;;;;96.97;48.57;;;19.00;99.90;;;;;;7309434;19;20624;-80
2023/09/03 02:16:46;;;;;;;90.87;47.43;;;19.10;99.90;;;;;;7286691;19;20177;-80
2023/09/03 02:19:12;;;;;;;89.13;44.57;;;19.00;99.90;;;;;;7287508;19;20194;-81
2023/09/03 02:21:39;;;;;;;86.87;45.33;;;19.00;99.90;;;;;;7288038;19;20556;-81
2023/09/03 02:24:04;;;;;;;81.87;44.60;;;19.10;99.90;;;;;;7286323;19;20187;-79
2023/09/03 02:26:30;;;;;;;77.57;42.67;;;19.10;99.90;;;;;;7286781;19;20659;-79
2023/09/03 02:28:56;;;;;;;72.50;40.17;;;19.00;99.90;;;;;;7289506;19;20193;-79
2023/09/03 02:31:22;;;;;;;70.10;39.53;;;18.90;99.90;;;;;;7311628;19;20352;-80
2023/09/03 02:33:48;;;;;;;68.07;38.93;;;18.80;99.90;;;;;;7290403;19;20188;-80
2023/09/03 02:36:14;;;;;;;59.10;35.93;;;18.70;99.90;;;;;;7294041;19;20180;-80
2023/09/03 02:38:40;;;;;;;58.47;34.57;;;18.60;99.90;;;;;;7288111;19;20209;-79
2023/09/03 02:41:05;;;;;;;56.23;33.67;;;18.50;99.90;;;;;;7287062;19;20692;-80
2023/09/03 02:43:35;;;;;;;55.10;33.10;;;18.50;99.90;;;;;;7285771;19;20663;-78
2023/09/03 02:46:01;;;;;;;51.33;31.47;;;18.40;99.90;;;;;;7284927;19;20188;-81
2023/09/03 02:48:26;;;;;;;49.53;31.10;;;18.30;99.90;;;;;;7285804;19;20281;-80
2023/09/03 02:50:52;;;;;;;49.50;29.90;;;18.20;99.90;;;;;;7306448;19;20237;-80
2023/09/03 02:53:18;;;;;;;49.27;30.00;;;18.10;99.90;;;;;;7294528;19;20188;-80
2023/09/03 02:55:44;;;;;;;54.13;31.33;;;18.10;99.90;;;;;;7287304;19;20221;-80
2023/09/03 02:58:10;;;;;;;65.77;37.27;;;18.00;99.90;;;;;;7284926;19;20207;-79
2023/09/03 03:00:36;;;;;;;66.50;37.30;;;18.10;99.90;;;;;;7286845;19;20227;-79
2023/09/03 03:03:04;;;;;;;71.53;38.57;;;18.30;99.90;;;;;;7287283;19;20547;-80
2023/09/03 03:05:30;;;;;;;62.33;34.37;;;18.40;99.90;;;;;;7285459;19;20199;-80
2023/09/03 03:07:58;;;;;;;55.43;33.27;;;18.40;99.90;;;;;;7286009;19;20191;-78
2023/09/03 03:10:24;;;;;;;54.70;33.03;;;18.20;99.90;;;;;;7290126;19;20735;-78
2023/09/03 03:12:50;;;;;;;52.33;30.60;;;18.10;99.90;;;;;;7308264;19;20198;-79
2023/09/03 03:15:17;;;;;;;65.47;35.43;;;18.00;99.90;;;;;;7286207;19;20187;-80
2023/09/03 03:17:43;;;;;;;62.90;35.67;;;18.10;99.90;;;;;;7285687;19;20634;-79
2023/09/03 03:20:09;;;;;;;67.90;37.63;;;18.20;99.90;;;;;;7290447;19;20199;-80
2023/09/03 03:22:35;;;;;;;56.93;32.03;;;18.30;99.90;;;;;;7297196;19;20653;-79
2023/09/03 03:25:02;;;;;;;53.53;31.57;;;18.20;99.90;;;;;;7298231;19;20204;-80
2023/09/03 03:27:29;;;;;;;48.60;29.37;;;18.10;99.90;;;;;;7290224;19;20209;-80
2023/09/03 03:29:56;;;;;;;47.30;28.77;;;18.00;99.90;;;;;;7287752;19;20195;-81
2023/09/03 03:32:22;;;;;;;48.13;29.10;;;17.90;99.90;;;;;;7307064;19;20209;-80
2023/09/03 03:34:52;;;;;;;50.07;29.50;;;17.80;99.90;;;;;;7286691;19;20288;-79
2023/09/03 03:37:18;;;;;;;47.03;28.57;;;17.80;99.90;;;;;;7286284;19;20192;-79
2023/09/03 03:39:47;;;;;;;51.37;30.20;;;17.80;99.90;;;;;;7286849;19;20182;-79
2023/09/03 03:42:13;;;;;;;68.30;37.23;;;17.80;99.90;;;;;;7285467;19;20193;-79
2023/09/03 03:44:39;;;;;;;82.33;41.47;;;17.70;99.90;;;;;;7284228;19;20193;-80
2023/09/03 03:47:05;;;;;;;96.53;46.43;;;17.80;99.90;;;;;;7285658;19;20659;-79
2023/09/03 03:49:31;;;;;;;108.13;48.67;;;17.90;99.90;;;;;;7284531;19;20187;-80
2023/09/03 03:51:56;;;;;;;111.57;50.17;;;18.00;99.90;;;;;;7289417;19;20264;-79
2023/09/03 03:54:22;;;;;;;114.57;52.00;;;18.10;99.90;;;;;;7315853;19;20229;-80
2023/09/03 03:56:48;;;;;;;113.50;51.33;;;18.10;99.90;;;;;;7291639;19;20288;-80
2023/09/03 03:59:14;;;;;;;113.83;51.60;;;18.10;99.90;;;;;;7289578;19;20202;-80
2023/09/03 04:01:40;;;;;;;106.40;50.17;;;18.10;99.90;;;;;;7292631;19;20184;-80
2023/09/03 04:04:06;;;;;;;103.13;47.80;;;18.10;99.90;;;;;;7291006;19;20218;-79
2023/09/03 04:06:32;;;;;;;105.27;48.70;;;18.10;99.90;;;;;;7290117;19;20286;-79
2023/09/03 04:08:57;;;;;;;101.13;47.50;;;18.10;99.90;;;;;;7291804;19;21636;-80
2023/09/03 04:11:24;;;;;;;95.70;45.13;;;18.20;99.90;;;;;;7303398;19;20189;-79
2023/09/03 04:13:50;;;;;;;86.80;44.13;;;18.20;99.90;;;;;;7313199;19;20188;-79
2023/09/03 04:16:22;;;;;;;89.03;44.70;;;18.20;99.90;;;;;;7290912;19;20664;-79
2023/09/03 04:18:49;;;;;;;88.47;43.27;;;18.30;99.90;;;;;;7290333;19;20226;-79
2023/09/03 04:21:16;;;;;;;71.70;39.07;;;18.20;99.90;;;;;;7290707;19;20210;-79
2023/09/03 04:23:42;;;;;;;70.30;37.87;;;18.10;99.90;;;;;;7289093;19;20201;-80
2023/09/03 04:26:09;;;;;;;65.87;36.50;;;18.10;99.90;;;;;;7289840;19;20554;-80
2023/09/03 04:28:40;;;;;;;54.30;31.00;;;18.00;99.90;;;;;;7286577;19;20189;-79
2023/09/03 04:31:10;;;;;;;49.40;29.10;;;18.00;99.90;;;;;;7289699;19;20264;-80
2023/09/03 04:33:38;;;;;;;51.83;28.83;;;17.90;99.90;;;;;;7291120;19;20201;-80
2023/09/03 04:36:05;;;;;;;49.03;28.30;;;17.80;99.90;;;;;;7290188;19;20217;-79
2023/09/03 04:38:35;;;;;;;48.13;28.37;;;17.80;99.90;;;;;;7289507;19;20197;-79
2023/09/03 04:41:04;;;;;;;57.80;32.50;;;17.80;99.90;;;;;;7289342;19;20186;-80
2023/09/03 04:43:36;;;;;;;63.23;33.77;;;17.80;99.90;;;;;;7288672;19;20191;-79
2023/09/03 04:46:02;;;;;;;64.63;34.97;;;17.90;99.90;;;;;;7288341;19;20182;-80
2023/09/03 04:48:28;;;;;;;61.33;34.17;;;17.90;99.90;;;;;;7287907;19;20193;-79
2023/09/03 04:50:54;;;;;;;62.03;35.10;;;17.80;99.90;;;;;;7296218;19;20185;-79
2023/09/03 04:53:21;;;;;;;64.23;35.37;;;17.70;99.90;;;;;;7310774;19;20193;-79
2023/09/03 04:55:48;;;;;;;62.63;35.13;;;17.70;99.90;;;;;;7288841;19;20188;-81
2023/09/03 04:58:14;;;;;;;69.50;35.33;;;17.70;99.90;;;;;;7288227;19;20231;-80
2023/09/03 05:00:39;;;;;;;60.80;33.37;;;17.70;99.90;;;;;;7289403;19;20209;-79
2023/09/03 05:03:08;;;;;;;60.27;32.10;;;17.60;99.90;;;;;;7289710;19;20228;-80
2023/09/03 05:05:43;;;;;;;52.63;30.93;;;17.60;99.90;;;;;;7288312;19;20197;-80
2023/09/03 05:08:10;;;;;;;49.37;27.07;;;17.40;99.90;;;;;;7295026;19;20188;-78
2023/09/03 05:10:38;;;;;;;45.17;25.60;;;17.20;99.90;;;;;;7295708;19;20256;-79
2023/09/03 05:13:05;;;;;;;45.77;27.00;;;17.00;99.90;;;;;;7296168;19;20213;-80
2023/09/03 05:15:31;;;;;;;48.33;28.33;;;16.80;99.90;;;;;;7294132;19;20563;-78
2023/09/03 05:17:57;;;;;;;46.27;26.93;;;16.80;99.90;;;;;;7294302;19;20197;-80
2023/09/03 05:20:23;;;;;;;51.40;27.53;;;16.90;99.90;;;;;;7314507;19;20193;-79
2023/09/03 05:22:49;;;;;;;53.57;28.47;;;17.00;99.90;;;;;;7304239;19;20317;-80
2023/09/03 05:25:15;;;;;;;50.40;29.30;;;17.20;99.90;;;;;;7292043;19;20194;-79
2023/09/03 05:27:41;;;;;;;50.17;29.73;;;17.30;99.90;;;;;;7294468;19;20189;-80
2023/09/03 05:30:08;;;;;;;62.60;34.60;;;17.50;99.90;;;;;;7296894;19;20224;-80
2023/09/03 05:32:33;;;;;;;62.10;33.33;;;17.60;99.90;;;;;;7294709;19;20197;-80
2023/09/03 05:34:59;;;;;;;65.90;35.03;;;17.90;99.90;;;;;;7292030;19;20707;-79
2023/09/03 05:37:25;;;;;;;73.83;36.63;;;17.90;99.90;;;;;;7290914;19;20659;-78
2023/09/03 05:39:51;;;;;;;70.83;32.57;;;18.00;99.90;;;;;;7310912;19;20589;-79
2023/09/03 05:42:18;;;;;;;111.00;37.67;;;17.80;99.90;;;;;;7283692;19;20577;-79
2023/09/03 05:44:43;;;;;;;76.77;38.67;;;17.80;99.90;;;;;;7287576;19;20281;-80
2023/09/03 05:47:13;;;;;;;92.40;36.70;;;18.00;99.90;;;;;;7285536;19;20196;-80
2023/09/03 05:49:39;;;;;;;79.57;36.03;;;18.10;99.90;;;;;;7285965;19;20193;-80
2023/09/03 05:52:05;;;;;;;106.63;37.83;;;18.30;99.90;;;;;;7283382;19;20203;-80
2023/09/03 05:54:31;;;;;;;84.07;37.77;;;18.40;99.90;;;;;;7286489;19;20198;-79
2023/09/03 05:56:57;;;;;;;113.37;36.80;;;18.40;99.90;;;;;;7285275;19;20193;-79
2023/09/03 05:59:22;;;;;;;75.40;37.43;;;18.40;99.90;;;;;;7306632;19;20314;-81
2023/09/03 06:01:48;;;;;;;94.63;39.93;;;18.40;99.90;;;;;;7286399;19;20199;-80
2023/09/03 06:04:16;;;;;;;71.47;38.03;;;18.40;99.90;;;;;;7285888;19;20190;-79
2023/09/03 06:06:43;;;;;;;130.00;39.37;;;18.40;99.90;;;;;;7284982;19;20605;-79
2023/09/03 06:09:09;;;;;;;138.93;37.63;;;18.60;99.90;;;;;;7283185;19;20225;-80
2023/09/03 06:11:35;;;;;;;72.67;37.30;;;18.60;99.90;;;;;;7282829;19;20546;-79
2023/09/03 06:14:01;;;;;;;110.93;35.70;;;18.60;99.90;;;;;;7284874;19;20189;-83
2023/09/03 06:16:27;;;;;;;88.40;38.80;;;18.70;99.90;;;;;;7284732;19;20194;-80
2023/09/03 06:18:54;;;;;;;68.87;38.23;;;19.00;99.90;;;;;;7307335;19;20210;-80
2023/09/03 06:21:20;;;;;;;66.40;37.47;;;19.20;99.90;;;;;;7285453;19;20225;-79
2023/09/03 06:23:46;;;;;;;60.30;35.10;;;19.50;99.90;;;;;;7285700;19;20647;-79
2023/09/03 06:26:13;;;;;;;58.13;35.60;;;19.80;99.90;;;;;;7284809;19;20227;-79
2023/09/03 06:28:39;;;;;;;55.97;35.10;;;20.10;99.90;;;;;;7286415;19;20205;-80
2023/09/03 06:31:05;;;;;;;53.97;34.13;;;20.40;99.90;;;;;;7285259;19;20182;-80
2023/09/03 06:33:31;;;;;;;51.57;32.87;;;20.80;99.90;;;;;;7284905;19;20275;-79
2023/09/03 06:35:57;;;;;;;48.07;32.37;;;21.20;99.90;;;;;;7284074;19;20191;-81
2023/09/03 06:38:22;;;;;;;46.87;31.90;;;21.40;99.90;;;;;;7300457;19;20194;-75
2023/09/03 06:40:49;;;;;;;45.23;30.77;;;21.60;99.90;;;;;;7281519;19;20186;-76
2023/09/03 06:43:15;;;;;;;50.67;32.60;;;21.70;99.90;;;;;;7280122;19;21036;-75
2023/09/03 06:45:41;;;;;;;48.80;31.63;;;21.80;99.90;;;;;;7277050;19;20735;-74
2023/09/03 06:48:08;;;;;;;47.27;31.60;;;21.90;99.90;;;;;;7281431;19;20266;-74
2023/09/03 06:50:34;;;;;;;52.77;33.20;;;21.80;99.90;;;;;;7281174;19;20196;-75
2023/09/03 06:53:00;;;;;;;50.37;32.70;;;21.80;99.90;;;;;;7281731;19;20196;-74
2023/09/03 06:55:26;;;;;;;47.43;30.77;;;21.80;99.90;;;;;;7280821;19;20271;-74
2023/09/03 06:57:51;;;;;;;44.37;29.83;;;22.00;99.90;;;;;;7301447;19;20656;-75
2023/09/03 07:00:17;;;;;;;45.90;29.67;;;22.20;99.90;;;;;;7278548;19;20200;-76
2023/09/03 07:02:43;;;;;;;45.80;31.30;;;22.50;99.90;;;;;;7280648;19;21606;-76
2023/09/03 07:05:09;;;;;;;39.10;27.80;;;22.90;99.90;;;;;;7280969;19;20203;-74
2023/09/03 07:07:35;;;;;;;43.23;28.30;;;23.10;99.90;;;;;;7279720;19;20203;-74
2023/09/03 07:10:01;;;;;;;36.90;27.03;;;23.70;99.90;;;;;;7279185;19;20207;-75
2023/09/03 07:12:27;;;;;;;36.13;26.30;;;24.60;99.90;;;;;;7279586;19;20192;-75
2023/09/03 07:14:53;;;;;;;33.97;26.13;;;26.20;99.90;;;;;;7301016;19;20821;-74
2023/09/03 07:17:19;;;;;;;33.80;25.25;;;27.10;99.90;;;;;;7280959;19;20201;-74
2023/09/03 07:19:45;;;;;;;32.63;25.15;;;27.50;99.90;;;;;;7280691;19;20188;-75
2023/09/03 07:22:11;;;;;;;31.73;24.20;;;27.60;99.90;;;;;;7280030;19;20731;-75
2023/09/03 07:24:37;;;;;;;34.00;24.85;;;28.00;99.90;;;;;;7278630;19;20209;-75
2023/09/03 07:27:03;;;;;;;36.40;25.60;;;28.90;99.90;;;;;;7276830;19;20699;-75
2023/09/03 07:29:28;;;;;;;34.00;24.63;;;28.70;99.90;;;;;;7278518;19;20256;-76
2023/09/03 07:31:54;;;;;;;35.13;25.70;;;28.80;99.90;;;;;;7291807;19;20189;-73
2023/09/03 07:34:20;;;;;;;34.22;25.30;;;28.90;99.90;;;;;;7295726;19;20209;-75
2023/09/03 07:36:46;;;;;;;31.20;23.83;;;29.40;99.90;;;;;;7280641;19;20200;-75
2023/09/03 07:39:11;;;;;;;33.70;25.27;;;29.90;99.90;;;;;;7279689;19;20264;-75
2023/09/03 07:41:38;;;;;;;34.28;25.85;;;30.40;99.90;;;;;;7277645;19;20193;-75
2023/09/03 07:44:05;;;;;;;34.75;25.20;;;30.90;99.90;;;;;;7279208;19;20184;-75
2023/09/03 07:46:31;;;;;;;36.97;26.15;;;31.30;99.90;;;;;;7278136;19;20196;-75
2023/09/03 07:48:57;;;;;;;33.70;25.48;;;31.90;99.90;;;;;;7279130;19;20648;-75
2023/09/03 07:51:23;;;;;;;35.90;26.63;;;32.20;99.90;;;;;;7300705;19;20192;-75
2023/09/03 07:53:49;;;;;;;38.22;27.13;;;31.00;99.90;;;;;;7278849;19;20615;-75
2023/09/03 07:56:18;;;;;;;35.95;25.58;;;30.60;99.90;;;;;;7279405;19;20185;-75
2023/09/03 07:58:44;;;;;;;37.38;26.40;;;30.60;99.90;;;;;;7278065;19;20674;-75
2023/09/03 08:01:12;;;;;;;37.70;26.95;;;30.90;99.90;;;;;;7280410;19;20177;-75
2023/09/03 08:03:39;;;;;;;39.40;26.98;;;31.00;99.90;;;;;;7278139;19;20200;-75
2023/09/03 08:06:06;;;;;;;39.85;27.83;;;31.00;99.90;;;;;;7278149;19;20287;-76
2023/09/03 08:08:31;;;;;;;38.25;27.45;;;31.20;99.90;;;;;;7278705;19;20185;-75
2023/09/03 08:10:57;;;;;;;37.58;26.58;;;31.10;99.90;;;;;;7279014;19;20535;-75
2023/09/03 08:13:23;;;;;;;38.13;27.45;;;31.00;99.90;;;;;;7300034;19;20184;-75
2023/09/03 08:15:49;;;;;;;37.13;26.50;;;31.80;99.90;;;;;;7279011;19;20189;-76
2023/09/03 08:18:18;;;;;;;35.67;26.63;;;32.40;99.90;;;;;;7278539;19;20192;-75
2023/09/03 08:20:44;;;;;;;38.63;27.25;;;31.20;99.90;;;;;;7276717;19;20556;-76
2023/09/03 08:23:11;;;;;;;38.50;26.92;;;31.00;99.90;;;;;;7277914;19;20694;-75
2023/09/03 08:25:37;;;;;;;35.45;25.83;;;30.80;99.90;;;;;;7278294;19;20189;-76
2023/09/03 08:28:03;;;;;;;35.55;25.95;;;31.10;99.90;;;;;;7266867;19;20213;-76
2023/09/03 08:30:29;;;;;;;34.70;25.05;;;32.00;99.90;;;;;;7276693;19;20191;-75
2023/09/03 08:32:55;;;;;;;35.88;26.33;;;33.30;99.90;;;;;;7286280;19;20224;-75
2023/09/03 08:35:20;;;;;;;37.72;26.45;;;33.00;99.90;;;;;;7296522;19;20201;-75
2023/09/03 08:37:46;;;;;;;36.50;26.38;;;32.40;99.90;;;;;;7282341;19;20184;-75
2023/09/03 08:40:12;;;;;;;35.30;26.13;;;31.50;99.90;;;;;;7285341;19;20189;-75
2023/09/03 08:42:41;;;;;;;37.53;26.35;;;31.00;99.90;;;;;;7284888;19;20355;-75
2023/09/03 08:45:12;;;;;;;38.55;26.73;;;30.70;99.90;;;;;;7284019;19;20222;-75
2023/09/03 08:47:41;;;;;;;38.88;27.20;;;30.30;99.90;;;;;;7284910;19;20663;-75
2023/09/03 08:50:08;;;;;;;38.83;26.88;;;30.20;99.90;;;;;;7284979;19;20196;-75
2023/09/03 08:52:37;;;;;;;39.20;26.10;;;29.80;99.90;;;;;;7283490;19;20189;-76
2023/09/03 08:55:04;;;;;;;38.03;25.50;;;29.50;99.90;;;;;;7283486;19;20188;-74
2023/09/03 08:57:30;;;;;;;36.65;25.63;;;29.60;99.90;;;;;;7282682;19;20192;-75
2023/09/03 08:59:56;;;;;;;37.47;24.65;;;29.60;99.90;;;;;;7281521;19;20188;-74
2023/09/03 09:02:24;;;;;;;38.45;26.00;;;29.90;99.90;;;;;;7306730;19;20203;-75
2023/09/03 09:04:50;;;;;;;36.00;25.23;;;29.50;99.90;;;;;;7281806;19;20192;-75
2023/09/03 09:07:18;;;;;;;37.95;25.73;;;29.40;99.90;;;;;;7283260;19;20734;-75
2023/09/03 09:09:47;;;;;;;37.05;25.85;;;30.10;99.90;;;;;;7284221;19;20201;-74
2023/09/03 09:12:21;;;;;;;36.78;25.50;;;29.80;99.90;;;;;;7283742;19;20189;-75
2023/09/03 09:14:58;;;;;;;36.17;25.08;;;30.00;99.90;;;;;;7282599;19;20248;-75
2023/09/03 09:17:24;;;;;;;39.83;26.65;;;30.20;99.90;;;;;;7283663;19;20192;-74
2023/09/03 09:19:53;;;;;;;37.63;25.67;;;29.60;99.90;;;;;;7294092;19;20640;-76
2023/09/03 09:22:19;;;;;;;38.65;25.73;;;29.50;99.90;;;;;;7283341;19;20196;-77
2023/09/03 09:24:45;;;;;;;39.47;24.55;;;30.00;99.90;;;;;;7282319;19;20626;-74
2023/09/03 09:27:19;;;;;;;35.00;23.60;;;30.10;99.90;;;;;;7279102;19;20589;-75
2023/09/03 09:29:46;;;;;;;39.10;25.50;;;29.30;99.90;;;;;;7281994;19;20523;-75
2023/09/03 09:32:22;;;;;;;39.25;26.60;;;28.50;99.90;;;;;;7284001;19;20200;-75
2023/09/03 09:34:49;;;;;;;36.53;24.38;;;28.20;99.90;;;;;;7275823;19;21041;-75
2023/09/03 09:37:16;;;;;;;37.22;24.75;;;28.40;99.90;;;;;;7282709;19;20640;-75
2023/09/03 09:39:47;;;;;;;37.83;25.13;;;28.90;99.90;;;;;;7282060;19;20196;-76
2023/09/03 09:42:13;;;;;;;37.20;25.60;;;28.80;99.90;;;;;;7281712;19;20720;-74
2023/09/03 09:44:59;;;;;;;33.75;23.17;;;28.50;99.90;;;;;;7276502;19;20628;-74
2023/09/03 09:47:25;;;;;;;32.97;22.55;;;28.80;99.90;;;;;;7275944;19;20188;-75
2023/09/03 09:49:52;;;;;;;32.53;22.75;;;29.70;99.90;;;;;;7301765;19;20814;-76
2023/09/03 09:52:19;;;;;;;31.42;21.63;;;30.10;99.90;;;;;;7276217;19;20189;-75
2023/09/03 09:54:46;;;;;;;35.13;23.75;;;30.20;99.90;;;;;;7281325;19;20261;-74
2023/09/03 09:57:13;;;;;;;33.65;23.10;;;30.00;99.90;;;;;;7281783;19;20184;-75
2023/09/03 09:59:41;;;;;;;34.42;24.30;;;29.90;99.90;;;;;;7280682;19;20197;-76
2023/09/03 10:02:14;;;;;;;34.08;23.20;;;29.60;99.90;;;;;;7282381;19;20185;-75
2023/09/03 10:04:42;;;;;;;32.10;22.13;;;30.10;99.90;;;;;;7281019;19;20193;-75
2023/09/03 10:07:08;;;;;;;32.28;21.95;;;30.70;99.90;;;;;;7280339;19;20201;-74
2023/09/03 10:09:37;;;;;;;30.90;22.27;;;30.40;99.90;;;;;;7283022;19;20196;-74
2023/09/03 10:12:07;;;;;;;30.10;22.33;;;30.40;99.90;;;;;;7281454;19;20185;-74
2023/09/03 10:14:34;;;;;;;30.45;21.50;;;30.60;99.90;;;;;;7282779;19;20200;-74
2023/09/03 10:17:01;;;;;;;28.88;20.60;;;30.10;99.90;;;;;;7282107;19;20185;-74
2023/09/03 10:19:29;;;;;;;28.27;19.80;;;30.20;99.90;;;;;;7277577;19;20198;-75
2023/09/03 10:21:59;;;;;;;23.80;18.17;;;30.20;99.90;;;;;;7292140;19;20739;-74
2023/09/03 10:24:26;;;;;;;24.92;17.52;;;30.40;99.90;;;;;;7285823;19;20672;-74
2023/09/03 10:26:58;;;;;;;27.20;19.42;;;30.90;99.90;;;;;;7300887;19;20245;-75
2023/09/03 10:29:27;;;;;;;28.92;20.30;;;31.30;99.90;;;;;;7276744;19;20181;-74
2023/09/03 10:31:55;;;;;;;25.42;18.67;;;31.50;99.90;;;;;;7302869;19;20200;-76
2023/09/03 10:34:21;;;;;;;24.23;19.40;;;31.90;99.90;;;;;;7281518;19;20198;-75
2023/09/03 10:37:06;;;;;;;25.90;18.23;;;31.80;99.90;;;;;;7281993;19;20221;-75
2023/09/03 10:39:37;;;;;;;23.15;16.42;;;32.40;99.90;;;;;;7177794;19;2004661;-75
2023/09/03 10:42:17;;;;;;;25.27;17.77;;;33.20;99.90;;;;;;7282069;19;20320;-75
2023/09/03 10:44:51;;;;;;;25.48;18.40;;;32.80;99.90;;;;;;7280060;19;20786;-75
2023/09/03 10:47:18;;;;;;;22.92;16.88;;;32.20;99.90;;;;;;7280239;19;20185;-75
2023/09/03 10:49:45;;;;;;;22.58;15.57;;;32.50;99.90;;;;;;7281245;19;20188;-75
2023/09/03 10:52:33;;;;;;;23.38;18.20;;;32.70;99.90;;;;;;7280645;19;20181;-74
2023/09/03 10:55:15;;;;;;;21.60;16.10;;;33.20;99.90;;;;;;7257733;19;20626;-74
2023/09/03 10:57:45;;;;;;;18.23;13.48;;;33.20;98.40;;;;;;7278319;19;20644;-74
2023/09/03 11:00:21;;;;;;;18.83;12.93;;;33.40;97.30;;;;;;7280424;19;20200;-75
2023/09/03 11:02:47;;;;;;;16.75;11.93;;;33.00;97.20;;;;;;7281838;19;20224;-74
2023/09/03 11:05:21;;;;;;;19.75;13.00;;;33.30;98.90;;;;;;7279270;19;20236;-74
2023/09/03 11:08:06;;;;;;;17.75;12.38;;;33.30;97.10;;;;;;7278756;19;20199;-75
2023/09/03 11:10:39;;;;;;;15.93;11.73;;;33.40;96.50;;;;;;7178822;19;2004765;-74
2023/09/03 11:13:08;;;;;;;16.98;11.48;;;33.20;95.30;;;;;;7280680;19;20297;-74
2023/09/03 11:15:34;;;;;;;16.98;12.05;;;33.50;95.90;;;;;;7279571;19;20181;-75
2023/09/03 11:18:00;;;;;;;14.13;9.90;;;33.20;94.00;;;;;;7277616;19;20950;-75
2023/09/03 11:20:31;;;;;;;13.90;9.85;;;32.40;97.70;;;;;;7287104;19;20191;-74
2023/09/03 11:23:02;;;;;;;13.52;9.05;;;32.80;95.80;;;;;;7279143;19;20221;-74
2023/09/03 11:25:32;;;;;;;17.27;10.70;;;32.60;95.50;;;;;;7277250;19;20184;-74
2023/09/03 11:27:58;;;;;;;20.65;14.13;;;32.70;94.60;;;;;;7278574;19;20177;-75
2023/09/03 11:30:24;;;;;;;11.82;8.18;;;32.90;94.80;;;;;;7295109;19;20193;-75
2023/09/03 11:32:50;;;;;;;13.68;8.63;;;33.00;93.60;;;;;;7289294;19;20615;-74
2023/09/03 11:35:16;;;;;;;11.10;7.65;;;33.00;93.90;;;;;;7281262;19;20565;-75
2023/09/03 11:37:44;;;;;;;11.75;8.32;;;33.00;92.90;;;;;;7280153;19;20184;-75
2023/09/03 11:40:12;;;;;;;12.52;8.18;;;32.30;94.50;;;;;;7279343;19;20196;-75
2023/09/03 11:42:41;;;;;;;14.50;9.98;;;32.20;94.90;;;;;;7278222;19;20188;-75
2023/09/03 11:45:09;;;;;;;13.10;9.13;;;32.10;95.30;;;;;;7279945;19;20189;-74
2023/09/03 11:47:38;;;;;;;10.88;7.28;;;32.50;95.90;;;;;;7279414;19;20537;-74
2023/09/03 11:50:13;;;;;;;14.40;8.23;;;32.70;93.80;;;;;;7278419;19;20180;-76
2023/09/03 11:52:49;;;;;;;10.85;7.20;;;32.70;92.70;;;;;;7278109;19;20215;-76
2023/09/03 11:55:15;;;;;;;10.77;7.63;;;32.20;94.10;;;;;;7278407;19;20219;-75
2023/09/03 11:57:43;;;;;;;12.77;7.75;;;32.30;94.60;;;;;;7278159;19;20589;-75
2023/09/03 12:00:11;;;;;;;10.00;6.70;;;32.30;93.30;;;;;;7278724;19;20851;-76
2023/09/03 12:02:41;;;;;;;10.85;6.93;;;32.40;94.10;;;;;;7278920;19;20210;-74
2023/09/03 12:05:08;;;;;;;11.07;7.50;;;32.30;94.40;;;;;;7278254;19;20636;-74
2023/09/03 12:07:33;;;;;;;11.25;7.57;;;32.20;95.10;;;;;;7278024;19;20193;-75
2023/09/03 12:09:59;;;;;;;10.23;6.93;;;32.40;93.30;;;;;;7278888;19;20189;-74
2023/09/03 12:12:25;;;;;;;9.88;6.90;;;32.50;92.40;;;;;;7295086;19;20256;-73
2023/09/03 12:14:51;;;;;;;10.15;7.03;;;32.60;93.10;;;;;;7299948;19;20289;-75
2023/09/03 12:17:27;;;;;;;10.85;7.80;;;33.00;92.70;;;;;;7284980;19;20193;-75
2023/09/03 12:19:53;;;;;;;10.70;7.53;;;32.70;92.30;;;;;;7284252;19;20281;-75
2023/09/03 12:22:19;;;;;;;11.30;7.25;;;32.60;92.30;;;;;;7285531;19;20207;-75
2023/09/03 12:24:49;;;;;;;10.05;6.75;;;32.10;92.80;;;;;;7284782;19;20804;-75
2023/09/03 12:27:15;;;;;;;9.90;6.43;;;31.80;92.40;;;;;;7285278;19;20202;-75
2023/09/03 12:29:41;;;;;;;10.57;6.78;;;31.60;92.90;;;;;;7283585;19;20192;-74